Terminal Aerodrome Forecast
Issued by NWS Shreveport, LA

Home | Current Version | Previous Version | Text Only | Print | Product List | Glossary On
Versions: 1 2 3 4 5 6 7 8 9 10 11 12 13 14 15 16
000
FTUS44 KSHV 221100 RRA
TAFTYR
TAF
KTYR 221141Z 2212/2312 11003KT P6SM BKN250
     FM221500 11006KT P6SM SCT035
     FM222000 10006KT P6SM SCT045
     FM230000 10005KT P6SM SKC=

USA.gov is the U.S. government's official web portal to all federal, state and local government web resources and services.